Time;durP1;ratioP1;P1;durP2;ratioP2;P2;SDS_P1;SDS_P2;PMS_P1;PMS_P2;Temp;Humidity;BMP_temperature;BMP_pressure;BME280_temperature;BME280_humidity;BME280_pressure;Samples;Min_cycle;Max_cycle;Signal;HPM_P1;HPM_P2
2024/01/04 00:02:45;;;;;;;0.65;0.65;;;;;;;;;;8279956;28;20041;-56
2024/01/04 00:06:45;;;;;;;2.00;0.70;;;;;;;;;;8278053;28;20110;-57
2024/01/04 00:10:46;;;;;;;5.47;1.13;;;;;;;;;;8273496;28;20288;-57
2024/01/04 00:14:46;;;;;;;3.63;0.90;;;;;;;;;;8255778;28;20172;-57
2024/01/04 00:18:46;;;;;;;4.20;1.00;;;;;;;;;;8257825;28;20136;-56
2024/01/04 00:22:46;;;;;;;1.92;0.82;;;;;;;;;;8261712;28;20041;-57
2024/01/04 00:26:46;;;;;;;3.55;1.05;;;;;;;;;;8261144;28;21372;-57
2024/01/04 00:30:46;;;;;;;3.97;1.10;;;;;;;;;;8260080;28;20103;-57
2024/01/04 00:34:47;;;;;;;2.63;0.98;;;;;;;;;;8254552;28;20056;-57
2024/01/04 00:38:47;;;;;;;2.57;0.83;;;;;;;;;;8257028;28;20132;-57
2024/01/04 00:42:47;;;;;;;7.03;1.05;;;;;;;;;;8256285;28;20295;-57
2024/01/04 00:46:48;;;;;;;2.27;0.90;;;;;;;;;;8275341;28;20426;-58
2024/01/04 00:50:48;;;;;;;2.53;0.88;;;;;;;;;;8260703;28;20670;-58
2024/01/04 00:54:48;;;;;;;2.22;0.75;;;;;;;;;;8257918;28;20345;-57
2024/01/04 00:58:48;;;;;;;3.35;0.82;;;;;;;;;;8257103;28;20030;-58
2024/01/04 01:02:49;;;;;;;1.40;0.73;;;;;;;;;;8258947;28;20041;-57
2024/01/04 01:06:49;;;;;;;5.00;0.90;;;;;;;;;;8256767;28;20025;-57
2024/01/04 01:10:49;;;;;;;2.85;0.82;;;;;;;;;;8258151;28;20493;-57
2024/01/04 01:14:50;;;;;;;2.65;0.77;;;;;;;;;;8257634;28;20022;-57
2024/01/04 01:18:50;;;;;;;3.38;1.05;;;;;;;;;;8251304;28;20041;-57
2024/01/04 01:22:50;;;;;;;1.10;0.60;;;;;;;;;;8256348;28;20237;-58
2024/01/04 01:26:50;;;;;;;2.38;0.80;;;;;;;;;;8262025;28;20017;-59
2024/01/04 01:30:50;;;;;;;2.53;0.75;;;;;;;;;;8258062;28;20034;-57
2024/01/04 01:34:52;;;;;;;3.67;0.75;;;;;;;;;;8260897;28;20031;-57
2024/01/04 01:38:52;;;;;;;0.77;0.60;;;;;;;;;;8257865;28;20152;-58
2024/01/04 01:42:52;;;;;;;1.90;0.80;;;;;;;;;;8262614;28;20116;-58
2024/01/04 01:46:52;;;;;;;2.60;0.95;;;;;;;;;;8256749;28;20030;-57
2024/01/04 01:50:53;;;;;;;2.73;0.90;;;;;;;;;;8259861;28;20520;-57
2024/01/04 01:54:53;;;;;;;3.33;0.88;;;;;;;;;;8259252;28;20291;-57
2024/01/04 01:58:53;;;;;;;1.20;0.57;;;;;;;;;;8254960;28;20851;-55
2024/01/04 02:02:54;;;;;;;1.23;0.63;;;;;;;;;;8260566;28;20960;-56
2024/01/04 02:06:56;;;;;;;2.28;0.80;;;;;;;;;;8258612;28;20157;-56
2024/01/04 02:10:56;;;;;;;1.30;0.68;;;;;;;;;;8258078;28;20030;-57
2024/01/04 02:14:56;;;;;;;3.80;0.60;;;;;;;;;;8257087;28;20025;-57
2024/01/04 02:18:57;;;;;;;0.52;0.50;;;;;;;;;;8258670;28;20418;-57
2024/01/04 02:22:57;;;;;;;2.08;0.60;;;;;;;;;;8254553;28;20079;-57
2024/01/04 02:26:57;;;;;;;2.25;0.70;;;;;;;;;;8257729;28;20132;-56
2024/01/04 02:30:58;;;;;;;2.80;0.52;;;;;;;;;;8253782;28;20041;-58
2024/01/04 02:34:58;;;;;;;0.95;0.50;;;;;;;;;;8262381;28;20667;-57
2024/01/04 02:38:58;;;;;;;2.30;0.63;;;;;;;;;;8267906;28;20024;-57
2024/01/04 02:42:58;;;;;;;0.73;0.50;;;;;;;;;;8268751;28;20029;-56
2024/01/04 02:46:58;;;;;;;1.40;0.50;;;;;;;;;;8271312;28;20090;-56
2024/01/04 02:50:59;;;;;;;0.98;0.60;;;;;;;;;;8273401;28;20037;-57
2024/01/04 02:54:59;;;;;;;2.08;0.50;;;;;;;;;;8271196;28;20033;-57
2024/01/04 02:58:59;;;;;;;0.93;0.73;;;;;;;;;;8271347;28;20144;-56
2024/01/04 03:02:59;;;;;;;1.35;0.60;;;;;;;;;;8268786;28;20783;-57
2024/01/04 03:07:00;;;;;;;0.70;0.52;;;;;;;;;;8262085;28;20017;-57
2024/01/04 03:11:00;;;;;;;0.75;0.40;;;;;;;;;;8258341;28;20434;-58
2024/01/04 03:15:00;;;;;;;1.90;0.70;;;;;;;;;;8261657;28;20056;-57
2024/01/04 03:19:00;;;;;;;2.20;0.63;;;;;;;;;;8256391;28;20041;-57
2024/01/04 03:23:00;;;;;;;1.58;0.60;;;;;;;;;;8259262;28;20024;-57
2024/01/04 03:27:01;;;;;;;0.88;0.50;;;;;;;;;;8259621;28;20080;-57
2024/01/04 03:31:01;;;;;;;2.13;0.52;;;;;;;;;;8259498;28;20033;-57
2024/01/04 03:35:04;;;;;;;0.90;0.50;;;;;;;;;;8256567;28;20069;-57
2024/01/04 03:39:05;;;;;;;0.63;0.50;;;;;;;;;;8258861;28;20025;-57
2024/01/04 03:43:05;;;;;;;1.35;0.60;;;;;;;;;;8256154;28;20076;-57
2024/01/04 03:47:05;;;;;;;2.38;0.70;;;;;;;;;;8270158;28;20033;-57
2024/01/04 03:51:05;;;;;;;0.60;0.52;;;;;;;;;;8271276;28;20033;-56
2024/01/04 03:55:06;;;;;;;1.27;0.63;;;;;;;;;;8266642;28;20053;-58
2024/01/04 03:59:06;;;;;;;0.80;0.50;;;;;;;;;;8269533;28;20190;-57
2024/01/04 04:03:06;;;;;;;2.83;0.88;;;;;;;;;;8271113;28;20109;-56
2024/01/04 04:07:06;;;;;;;3.90;0.68;;;;;;;;;;8271527;28;20026;-56
2024/01/04 04:11:16;;;;;;;0.93;0.50;;;;;;;;;;8272104;28;23067;-56
2024/01/04 04:15:16;;;;;;;1.20;0.63;;;;;;;;;;8265411;28;20276;-58
2024/01/04 04:19:17;;;;;;;2.73;0.60;;;;;;;;;;8261165;28;20087;-57
2024/01/04 04:23:17;;;;;;;2.63;0.55;;;;;;;;;;8260253;28;20288;-55
2024/01/04 04:27:17;;;;;;;2.65;0.60;;;;;;;;;;8261716;28;20461;-57
2024/01/04 04:31:18;;;;;;;1.05;0.60;;;;;;;;;;8258488;28;20037;-57
2024/01/04 04:35:19;;;;;;;0.65;0.65;;;;;;;;;;8258391;28;20120;-59
2024/01/04 04:39:19;;;;;;;0.50;0.50;;;;;;;;;;8258408;28;20108;-57
2024/01/04 04:43:19;;;;;;;2.00;0.60;;;;;;;;;;8256522;28;20025;-57
2024/01/04 04:47:19;;;;;;;0.80;0.70;;;;;;;;;;8256608;28;20036;-57
2024/01/04 04:51:19;;;;;;;1.10;0.57;;;;;;;;;;8254816;28;20108;-56
2024/01/04 04:55:19;;;;;;;2.20;0.70;;;;;;;;;;8253914;28;20036;-56
2024/01/04 04:59:20;;;;;;;0.57;0.55;;;;;;;;;;8257004;28;20025;-57
2024/01/04 05:03:20;;;;;;;1.10;0.52;;;;;;;;;;8256200;28;20041;-58
2024/01/04 05:07:20;;;;;;;1.50;0.65;;;;;;;;;;8257301;28;20056;-57
2024/01/04 05:11:20;;;;;;;1.00;0.60;;;;;;;;;;8258644;28;20025;-58
2024/01/04 05:15:20;;;;;;;1.02;0.52;;;;;;;;;;8256753;28;20075;-57
2024/01/04 05:19:21;;;;;;;1.30;0.60;;;;;;;;;;8258828;28;20029;-58
2024/01/04 05:23:21;;;;;;;1.08;0.70;;;;;;;;;;8255306;28;20060;-58
2024/01/04 05:27:21;;;;;;;1.05;0.57;;;;;;;;;;8257800;28;20071;-57
2024/01/04 05:31:21;;;;;;;1.85;0.63;;;;;;;;;;8256670;28;20053;-57
2024/01/04 05:35:22;;;;;;;0.90;0.57;;;;;;;;;;8257821;28;20036;-58
2024/01/04 05:39:22;;;;;;;1.33;0.55;;;;;;;;;;8256694;28;20021;-58
2024/01/04 05:43:23;;;;;;;2.10;0.50;;;;;;;;;;8254185;28;20025;-58
2024/01/04 05:47:23;;;;;;;1.33;0.60;;;;;;;;;;8255431;28;20044;-57
2024/01/04 05:51:23;;;;;;;1.20;0.68;;;;;;;;;;8250732;28;20033;-57
2024/01/04 05:55:23;;;;;;;0.80;0.50;;;;;;;;;;8258378;28;20029;-57
2024/01/04 05:59:24;;;;;;;0.65;0.47;;;;;;;;;;8256238;28;20032;-58
2024/01/04 06:03:24;;;;;;;0.82;0.50;;;;;;;;;;8257880;28;20216;-58
2024/01/04 06:07:25;;;;;;;1.05;0.52;;;;;;;;;;8258452;28;20849;-58
2024/01/04 06:11:25;;;;;;;1.33;0.55;;;;;;;;;;8254965;28;20025;-58
2024/01/04 06:15:25;;;;;;;1.30;0.70;;;;;;;;;;8258234;28;20970;-57
2024/01/04 06:19:26;;;;;;;1.02;0.63;;;;;;;;;;8263063;28;20106;-58
2024/01/04 06:23:27;;;;;;;0.90;0.52;;;;;;;;;;8261562;28;20025;-58
2024/01/04 06:27:27;;;;;;;2.67;0.70;;;;;;;;;;8264518;28;20041;-58
2024/01/04 06:31:28;;;;;;;0.77;0.68;;;;;;;;;;8257610;28;20063;-58
2024/01/04 06:35:28;;;;;;;0.75;0.50;;;;;;;;;;8263270;28;20737;-65
2024/01/04 06:39:28;;;;;;;1.40;0.87;;;;;;;;;;8263821;28;20814;-57
2024/01/04 06:43:29;;;;;;;1.35;0.57;;;;;;;;;;8261924;28;20027;-57
2024/01/04 06:47:29;;;;;;;1.48;0.57;;;;;;;;;;8260721;28;20136;-58
2024/01/04 06:51:29;;;;;;;1.45;0.57;;;;;;;;;;8260518;28;20036;-58
2024/01/04 06:55:29;;;;;;;1.20;0.50;;;;;;;;;;8257599;28;20648;-58
2024/01/04 06:59:29;;;;;;;1.52;0.68;;;;;;;;;;8257070;28;20079;-58
2024/01/04 07:03:31;;;;;;;1.73;0.70;;;;;;;;;;8258218;28;20036;-58
2024/01/04 07:07:32;;;;;;;1.27;0.57;;;;;;;;;;8257307;28;20132;-57
2024/01/04 07:11:32;;;;;;;1.08;0.80;;;;;;;;;;8261194;28;20064;-57
2024/01/04 07:15:32;;;;;;;0.75;0.55;;;;;;;;;;8265334;28;20040;-57
2024/01/04 07:19:32;;;;;;;1.50;0.47;;;;;;;;;;8266895;28;20034;-58
2024/01/04 07:23:33;;;;;;;3.08;0.52;;;;;;;;;;8269560;28;20030;-58
2024/01/04 07:27:33;;;;;;;0.45;0.40;;;;;;;;;;8274857;28;20014;-58
2024/01/04 07:31:34;;;;;;;1.40;0.80;;;;;;;;;;8274789;28;20219;-58
2024/01/04 07:35:34;;;;;;;1.25;0.68;;;;;;;;;;8272667;28;20283;-58
2024/01/04 07:39:34;;;;;;;0.57;0.43;;;;;;;;;;8266643;28;20427;-58
2024/01/04 07:43:36;;;;;;;1.88;1.17;;;;;;;;;;8269877;28;20033;-57
2024/01/04 07:47:36;;;;;;;5.05;0.60;;;;;;;;;;8271787;28;20122;-57
2024/01/04 07:51:38;;;;;;;1.97;0.70;;;;;;;;;;8272693;28;20026;-57
2024/01/04 07:55:38;;;;;;;1.08;0.60;;;;;;;;;;8268155;28;20276;-55
2024/01/04 07:59:39;;;;;;;2.05;0.90;;;;;;;;;;8261407;28;20029;-57
2024/01/04 08:03:39;;;;;;;1.98;0.70;;;;;;;;;;8260892;28;20521;-57
2024/01/04 08:07:40;;;;;;;1.02;0.52;;;;;;;;;;8260364;28;20112;-56
2024/01/04 08:11:40;;;;;;;1.70;0.60;;;;;;;;;;8261116;28;20026;-57
2024/01/04 08:15:40;;;;;;;1.52;0.70;;;;;;;;;;8260478;28;20108;-58
2024/01/04 08:19:41;;;;;;;2.90;0.90;;;;;;;;;;8259013;28;20061;-58
2024/01/04 08:23:41;;;;;;;3.67;0.90;;;;;;;;;;8258786;28;20475;-58
2024/01/04 08:27:41;;;;;;;2.58;0.80;;;;;;;;;;8256728;28;20022;-56
2024/01/04 08:31:42;;;;;;;2.60;0.73;;;;;;;;;;8258335;28;20684;-57
2024/01/04 08:35:42;;;;;;;2.25;1.00;;;;;;;;;;8257624;28;20035;-57
2024/01/04 08:39:42;;;;;;;1.98;0.80;;;;;;;;;;8256199;28;20489;-57
2024/01/04 08:43:42;;;;;;;3.23;0.73;;;;;;;;;;8258988;28;20096;-57
2024/01/04 08:47:42;;;;;;;1.75;0.75;;;;;;;;;;8256308;28;20063;-57
2024/01/04 08:51:43;;;;;;;2.38;0.82;;;;;;;;;;8255882;28;20033;-56
2024/01/04 08:55:43;;;;;;;3.47;0.95;;;;;;;;;;8257642;28;20033;-59
2024/01/04 08:59:43;;;;;;;1.73;0.88;;;;;;;;;;8258345;28;20063;-59
2024/01/04 09:03:43;;;;;;;2.78;1.00;;;;;;;;;;8259357;28;20033;-58
2024/01/04 09:07:43;;;;;;;5.80;0.93;;;;;;;;;;8257248;28;20029;-58
2024/01/04 09:11:48;;;;;;;2.50;0.90;;;;;;;;;;8254479;28;20021;-57
2024/01/04 09:15:48;;;;;;;3.50;0.93;;;;;;;;;;8258373;28;20286;-58
2024/01/04 09:19:49;;;;;;;2.00;0.80;;;;;;;;;;8258210;28;20091;-58
2024/01/04 09:23:52;;;;;;;2.63;0.90;;;;;;;;;;8259517;28;20032;-59
2024/01/04 09:27:52;;;;;;;2.35;0.80;;;;;;;;;;8257871;28;20053;-58
2024/01/04 09:31:52;;;;;;;2.78;1.15;;;;;;;;;;8253021;28;20096;-59
2024/01/04 09:35:52;;;;;;;6.07;1.20;;;;;;;;;;8257162;28;20021;-59
2024/01/04 09:39:53;;;;;;;4.77;1.20;;;;;;;;;;8253553;28;20340;-59
2024/01/04 09:43:54;;;;;;;2.00;0.90;;;;;;;;;;8253740;28;20276;-59
2024/01/04 09:47:56;;;;;;;3.33;1.20;;;;;;;;;;8258211;28;21153;-60
2024/01/04 09:51:56;;;;;;;5.80;1.27;;;;;;;;;;8256332;28;20040;-59
2024/01/04 09:55:59;;;;;;;4.90;1.25;;;;;;;;;;8259600;28;20021;-59
2024/01/04 10:00:00;;;;;;;5.57;1.35;;;;;;;;;;8260873;28;20033;-59
2024/01/04 10:04:03;;;;;;;4.97;1.10;;;;;;;;;;8258096;28;20775;-58
2024/01/04 10:08:10;;;;;;;7.07;1.63;;;;;;;;;;8255636;28;20093;-58
2024/01/04 10:12:11;;;;;;;8.07;1.50;;;;;;;;;;8259019;28;20448;-57
2024/01/04 10:16:11;;;;;;;10.30;1.70;;;;;;;;;;8256773;28;20033;-58
2024/01/04 10:20:11;;;;;;;6.07;1.45;;;;;;;;;;8257068;28;22403;-58
2024/01/04 10:24:15;;;;;;;10.93;2.30;;;;;;;;;;8258178;28;20026;-58
2024/01/04 10:28:19;;;;;;;10.50;1.97;;;;;;;;;;8260513;28;20817;-57
2024/01/04 10:32:19;;;;;;;;;;;;;;;;;;8258074;28;20037;-58
2024/01/04 10:36:21;;;;;;;8.98;1.63;;;;;;;;;;8258341;28;20033;-58
2024/01/04 10:40:22;;;;;;;8.27;1.70;;;;;;;;;;8254304;28;20144;-58
2024/01/04 10:44:23;;;;;;;7.20;1.75;;;;;;;;;;8253090;28;20025;-57
2024/01/04 10:48:23;;;;;;;7.70;1.63;;;;;;;;;;8245426;28;20041;-58
2024/01/04 10:52:27;;;;;;;11.35;1.70;;;;;;;;;;8252559;28;20069;-58
2024/01/04 10:56:33;;;;;;;11.07;2.17;;;;;;;;;;8256298;28;20308;-56
2024/01/04 11:00:33;;;;;;;8.55;1.42;;;;;;;;;;8246421;28;20069;-58
2024/01/04 11:04:36;;;;;;;7.47;1.70;;;;;;;;;;8260059;28;20049;-57
2024/01/04 11:08:38;;;;;;;7.28;1.50;;;;;;;;;;8260413;28;20112;-57
2024/01/04 11:12:39;;;;;;;6.72;1.90;;;;;;;;;;8264601;28;20483;-55
2024/01/04 11:16:45;;;;;;;5.90;1.70;;;;;;;;;;8266924;28;20421;-57
2024/01/04 11:20:53;;;;;;;8.07;1.95;;;;;;;;;;8271195;28;20664;-57
2024/01/04 11:25:15;;;;;;;7.72;1.98;;;;;;;;;;8266542;28;20128;-56
2024/01/04 11:29:16;;;;;;;7.05;1.98;;;;;;;;;;8252849;28;20114;-55
2024/01/04 11:33:17;;;;;;;10.18;3.20;;;;;;;;;;8260783;28;20502;-56
2024/01/04 11:37:18;;;;;;;11.50;2.22;;;;;;;;;;8258110;28;20132;-57
2024/01/04 11:41:29;;;;;;;7.93;1.77;;;;;;;;;;8259237;28;20172;-57
2024/01/04 11:45:29;;;;;;;6.10;1.92;;;;;;;;;;8260187;28;20152;-56
2024/01/04 11:49:30;;;;;;;8.40;1.90;;;;;;;;;;8254513;28;20136;-56
2024/01/04 11:53:30;;;;;;;7.00;1.52;;;;;;;;;;8261814;28;20700;-57
2024/01/04 11:57:30;;;;;;;5.97;2.30;;;;;;;;;;8259421;28;20705;-57
2024/01/04 12:01:31;;;;;;;8.27;1.33;;;;;;;;;;8255755;28;20077;-56
2024/01/04 12:05:32;;;;;;;8.15;1.65;;;;;;;;;;8263265;28;20029;-57
2024/01/04 12:09:33;;;;;;;5.43;1.70;;;;;;;;;;8262648;28;20017;-57
2024/01/04 12:13:34;;;;;;;6.30;1.50;;;;;;;;;;8260399;28;20040;-58
2024/01/04 12:17:34;;;;;;;8.40;1.70;;;;;;;;;;8257268;28;21223;-57
2024/01/04 12:21:34;;;;;;;5.63;1.40;;;;;;;;;;8259263;28;20033;-58
2024/01/04 12:25:35;;;;;;;8.27;2.00;;;;;;;;;;8261320;28;20033;-58
2024/01/04 12:29:35;;;;;;;6.70;1.55;;;;;;;;;;8260608;28;20083;-58
2024/01/04 12:33:35;;;;;;;6.03;1.40;;;;;;;;;;8260592;28;20046;-58
2024/01/04 12:37:35;;;;;;;9.82;1.48;;;;;;;;;;8257888;28;20271;-58
2024/01/04 12:41:37;;;;;;;6.32;1.30;;;;;;;;;;8260589;28;20114;-57
2024/01/04 12:45:37;;;;;;;5.25;1.25;;;;;;;;;;8257041;28;20034;-58
2024/01/04 12:49:38;;;;;;;5.38;1.63;;;;;;;;;;8257717;28;21764;-57
2024/01/04 12:53:40;;;;;;;5.22;1.60;;;;;;;;;;8257739;28;20508;-56
2024/01/04 12:57:40;;;;;;;8.30;1.30;;;;;;;;;;8260606;28;20054;-58
2024/01/04 13:01:40;;;;;;;8.60;1.83;;;;;;;;;;8257345;28;20084;-57
2024/01/04 13:05:41;;;;;;;3.57;1.13;;;;;;;;;;8256164;28;20280;-58
2024/01/04 13:09:41;;;;;;;7.57;1.75;;;;;;;;;;8260259;28;20063;-58
2024/01/04 13:13:42;;;;;;;5.87;1.40;;;;;;;;;;8261758;28;20049;-57
2024/01/04 13:17:42;;;;;;;5.90;1.60;;;;;;;;;;8258325;28;20384;-57
2024/01/04 13:21:43;;;;;;;7.88;1.63;;;;;;;;;;8257745;28;20109;-57
2024/01/04 13:25:43;;;;;;;7.10;2.22;;;;;;;;;;8258699;28;20030;-56
2024/01/04 13:29:43;;;;;;;7.75;1.77;;;;;;;;;;8241216;28;20132;-58
2024/01/04 13:33:43;;;;;;;8.18;1.85;;;;;;;;;;8236588;28;20047;-57
2024/01/04 13:37:44;;;;;;;5.30;1.45;;;;;;;;;;8249783;28;23024;-59
2024/01/04 13:41:44;;;;;;;6.32;1.77;;;;;;;;;;8244020;28;20029;-59
2024/01/04 13:45:44;;;;;;;8.88;1.35;;;;;;;;;;8250893;28;20160;-57
2024/01/04 13:49:45;;;;;;;7.85;1.42;;;;;;;;;;8244407;28;20982;-59
2024/01/04 13:53:45;;;;;;;9.33;2.07;;;;;;;;;;8233014;28;20808;-58
2024/01/04 13:57:45;;;;;;;6.40;1.73;;;;;;;;;;8247155;28;20703;-57
2024/01/04 14:01:45;;;;;;;8.60;1.90;;;;;;;;;;8239094;28;20038;-57
2024/01/04 14:05:47;;;;;;;8.40;1.98;;;;;;;;;;8247901;28;20084;-58
2024/01/04 14:09:47;;;;;;;7.82;1.95;;;;;;;;;;8234026;28;20025;-57
2024/01/04 14:13:47;;;;;;;9.80;2.27;;;;;;;;;;8239436;28;21124;-57
2024/01/04 14:17:48;;;;;;;8.75;2.10;;;;;;;;;;8232596;28;20296;-59
2024/01/04 14:21:48;;;;;;;9.00;2.00;;;;;;;;;;8241067;28;20177;-58
2024/01/04 14:25:49;;;;;;;8.20;1.50;;;;;;;;;;8235288;28;20475;-58
2024/01/04 14:29:52;;;;;;;10.95;2.13;;;;;;;;;;8240962;28;20372;-58
2024/01/04 14:33:53;;;;;;;8.27;1.77;;;;;;;;;;8233908;28;20042;-58
2024/01/04 14:37:53;;;;;;;8.98;1.65;;;;;;;;;;8240073;28;20041;-58
2024/01/04 14:41:53;;;;;;;9.70;2.20;;;;;;;;;;8250043;28;20037;-58
2024/01/04 14:45:53;;;;;;;9.50;2.10;;;;;;;;;;8245529;28;20276;-59
2024/01/04 14:49:54;;;;;;;8.43;1.95;;;;;;;;;;8253114;28;20029;-58
2024/01/04 14:53:54;;;;;;;14.23;2.20;;;;;;;;;;8257839;28;20030;-58
2024/01/04 14:57:54;;;;;;;6.85;1.73;;;;;;;;;;8257559;28;20021;-57
2024/01/04 15:01:55;;;;;;;7.97;2.00;;;;;;;;;;8257010;28;20037;-57
2024/01/04 15:05:55;;;;;;;7.05;2.20;;;;;;;;;;8259125;28;20017;-57
2024/01/04 15:09:56;;;;;;;8.48;2.03;;;;;;;;;;8259969;28;20079;-58
2024/01/04 15:13:56;;;;;;;11.55;2.30;;;;;;;;;;8258890;28;20025;-59
2024/01/04 15:17:56;;;;;;;6.68;1.73;;;;;;;;;;8258601;28;20052;-58
2024/01/04 15:21:57;;;;;;;12.82;2.33;;;;;;;;;;8258253;28;20919;-59
2024/01/04 15:25:57;;;;;;;8.38;1.88;;;;;;;;;;8258892;28;20032;-59
2024/01/04 15:29:57;;;;;;;6.20;2.25;;;;;;;;;;8256797;28;20025;-58
2024/01/04 15:33:57;;;;;;;6.70;1.43;;;;;;;;;;8256673;28;20044;-59
2024/01/04 15:37:58;;;;;;;7.53;1.90;;;;;;;;;;8256450;28;20272;-58
2024/01/04 15:41:59;;;;;;;7.70;1.85;;;;;;;;;;8257869;28;20156;-58
2024/01/04 15:45:59;;;;;;;6.22;1.75;;;;;;;;;;8258708;28;20042;-57
2024/01/04 15:49:59;;;;;;;5.97;1.60;;;;;;;;;;8257293;28;20021;-58
2024/01/04 15:53:59;;;;;;;10.18;1.55;;;;;;;;;;8259678;28;20037;-57
2024/01/04 15:57:59;;;;;;;5.13;1.30;;;;;;;;;;8261616;28;20029;-57
2024/01/04 16:02:00;;;;;;;9.07;1.98;;;;;;;;;;8262124;28;20107;-58
2024/01/04 16:06:00;;;;;;;10.15;1.92;;;;;;;;;;8262696;28;20882;-58
2024/01/04 16:10:00;;;;;;;12.63;2.05;;;;;;;;;;8262693;28;20486;-58
2024/01/04 16:14:00;;;;;;;7.72;1.80;;;;;;;;;;8263634;28;20027;-58
2024/01/04 16:18:01;;;;;;;7.13;1.98;;;;;;;;;;8262434;28;20041;-58
2024/01/04 16:22:01;;;;;;;8.75;1.80;;;;;;;;;;8254019;28;20676;-56
2024/01/04 16:26:04;;;;;;;5.65;1.83;;;;;;;;;;8262796;28;20086;-58
2024/01/04 16:30:05;;;;;;;8.02;1.60;;;;;;;;;;8260527;28;20135;-57
2024/01/04 16:34:05;;;;;;;6.72;1.70;;;;;;;;;;8255981;28;20219;-58
2024/01/04 16:38:07;;;;;;;11.45;2.45;;;;;;;;;;8269637;28;20036;-58
2024/01/04 16:42:07;;;;;;;14.70;2.25;;;;;;;;;;8264051;28;20025;-58
2024/01/04 16:46:07;;;;;;;8.77;1.55;;;;;;;;;;8263608;28;20044;-58
2024/01/04 16:50:08;;;;;;;8.07;1.98;;;;;;;;;;8264702;28;20017;-58
2024/01/04 16:54:08;;;;;;;9.23;1.83;;;;;;;;;;8271900;28;20037;-58
2024/01/04 16:58:09;;;;;;;9.05;1.55;;;;;;;;;;8278510;28;20029;-58
2024/01/04 17:02:10;;;;;;;12.07;2.35;;;;;;;;;;8265873;28;20045;-57
2024/01/04 17:06:11;;;;;;;8.60;1.73;;;;;;;;;;8263061;28;20068;-58
2024/01/04 17:10:11;;;;;;;9.55;1.60;;;;;;;;;;8257621;28;20267;-58
2024/01/04 17:14:12;;;;;;;5.55;1.75;;;;;;;;;;8263668;28;20025;-59
2024/01/04 17:18:12;;;;;;;13.63;1.92;;;;;;;;;;8270517;28;20705;-57
2024/01/04 17:22:12;;;;;;;8.68;1.85;;;;;;;;;;8263850;28;20992;-57
2024/01/04 17:26:12;;;;;;;7.22;1.60;;;;;;;;;;8271733;28;20037;-58
2024/01/04 17:30:17;;;;;;;10.68;2.10;;;;;;;;;;8265939;28;20022;-57
2024/01/04 17:34:19;;;;;;;10.77;2.50;;;;;;;;;;8265501;28;20033;-57
2024/01/04 17:38:20;;;;;;;13.57;1.77;;;;;;;;;;8266499;28;20017;-57
2024/01/04 17:42:20;;;;;;;9.93;2.00;;;;;;;;;;8266812;28;20846;-57
2024/01/04 17:46:20;;;;;;;8.95;2.13;;;;;;;;;;8269208;28;20038;-57
2024/01/04 17:50:20;;;;;;;15.10;2.30;;;;;;;;;;8260799;28;20710;-58
2024/01/04 17:54:21;;;;;;;7.53;1.60;;;;;;;;;;8261015;28;20033;-58
2024/01/04 17:58:21;;;;;;;8.80;1.67;;;;;;;;;;8264930;28;20025;-58
2024/01/04 18:02:22;;;;;;;8.00;1.77;;;;;;;;;;8265724;28;20125;-58
2024/01/04 18:06:22;;;;;;;4.43;1.63;;;;;;;;;;8264366;28;20028;-57
2024/01/04 18:10:22;;;;;;;6.75;1.83;;;;;;;;;;8261652;28;20337;-58
2024/01/04 18:14:22;;;;;;;7.35;1.70;;;;;;;;;;8264280;28;20140;-58
2024/01/04 18:18:23;;;;;;;4.78;1.30;;;;;;;;;;8256562;28;20044;-57
2024/01/04 18:22:23;;;;;;;8.15;1.67;;;;;;;;;;8260745;28;20816;-57
2024/01/04 18:26:23;;;;;;;9.73;1.95;;;;;;;;;;8260023;28;20022;-58
2024/01/04 18:30:23;;;;;;;8.82;2.33;;;;;;;;;;8248509;28;20059;-58
2024/01/04 18:34:24;;;;;;;9.18;2.80;;;;;;;;;;8258325;28;20782;-58
2024/01/04 18:38:24;;;;;;;8.02;2.22;;;;;;;;;;8252493;28;20123;-58
2024/01/04 18:42:25;;;;;;;5.97;1.75;;;;;;;;;;8257964;28;20026;-58
2024/01/04 18:46:25;;;;;;;9.10;1.80;;;;;;;;;;8252590;28;20033;-57
2024/01/04 18:50:25;;;;;;;9.45;2.80;;;;;;;;;;8254608;28;20657;-57
2024/01/04 18:54:25;;;;;;;8.63;2.22;;;;;;;;;;8260019;28;20033;-57
2024/01/04 18:58:25;;;;;;;9.90;1.98;;;;;;;;;;8257240;28;20036;-57
2024/01/04 19:02:26;;;;;;;13.32;4.13;;;;;;;;;;8256420;28;20041;-57
2024/01/04 19:06:27;;;;;;;10.83;3.50;;;;;;;;;;8257565;28;20029;-57
2024/01/04 19:10:27;;;;;;;10.95;3.00;;;;;;;;;;8253568;28;22459;-56
2024/01/04 19:14:27;;;;;;;11.00;4.55;;;;;;;;;;8251542;28;20656;-58
2024/01/04 19:18:27;;;;;;;10.13;3.65;;;;;;;;;;8252124;28;20045;-58
2024/01/04 19:22:27;;;;;;;11.05;5.38;;;;;;;;;;8254298;28;20108;-57
2024/01/04 19:26:28;;;;;;;12.30;3.42;;;;;;;;;;8252486;28;21101;-57
2024/01/04 19:30:28;;;;;;;11.32;2.67;;;;;;;;;;8251378;28;20042;-58
2024/01/04 19:34:28;;;;;;;9.65;2.33;;;;;;;;;;8251849;28;20026;-57
2024/01/04 19:38:28;;;;;;;9.18;3.35;;;;;;;;;;8251922;28;22595;-58
2024/01/04 19:42:29;;;;;;;7.63;2.30;;;;;;;;;;8253572;28;21123;-57
2024/01/04 19:46:29;;;;;;;8.90;2.40;;;;;;;;;;8250644;28;22313;-57
2024/01/04 19:50:29;;;;;;;10.05;2.20;;;;;;;;;;8249344;28;20128;-57
2024/01/04 19:54:30;;;;;;;14.53;2.90;;;;;;;;;;8252477;28;22392;-57
2024/01/04 19:58:30;;;;;;;14.40;4.00;;;;;;;;;;8253674;28;20268;-57
2024/01/04 20:02:31;;;;;;;11.63;3.53;;;;;;;;;;8251946;28;20154;-58
2024/01/04 20:06:31;;;;;;;10.67;3.03;;;;;;;;;;8248993;28;20026;-58
2024/01/04 20:10:32;;;;;;;14.73;4.40;;;;;;;;;;8255405;28;20953;-58
2024/01/04 20:14:32;;;;;;;18.02;5.57;;;;;;;;;;8252194;28;20500;-58
2024/01/04 20:18:32;;;;;;;14.85;3.80;;;;;;;;;;8252401;28;20765;-58
2024/01/04 20:22:32;;;;;;;12.07;2.72;;;;;;;;;;8251789;28;20136;-58
2024/01/04 20:26:33;;;;;;;10.38;3.00;;;;;;;;;;8250832;28;20692;-58
2024/01/04 20:30:33;;;;;;;8.37;3.47;;;;;;;;;;8248670;28;20590;-58
2024/01/04 20:34:33;;;;;;;12.82;3.75;;;;;;;;;;8250420;28;20302;-58
2024/01/04 20:38:33;;;;;;;5.97;2.63;;;;;;;;;;8253488;28;20147;-57
2024/01/04 20:42:34;;;;;;;13.20;3.38;;;;;;;;;;8251296;28;20034;-58
2024/01/04 20:46:36;;;;;;;14.50;4.72;;;;;;;;;;8250114;28;20033;-58
2024/01/04 20:50:36;;;;;;;16.58;6.82;;;;;;;;;;8247347;28;20021;-58
2024/01/04 20:54:37;;;;;;;25.85;6.60;;;;;;;;;;8245632;28;20032;-58
2024/01/04 20:58:37;;;;;;;11.32;6.03;;;;;;;;;;8244596;28;20026;-59
2024/01/04 21:02:37;;;;;;;16.33;4.45;;;;;;;;;;8240626;28;20203;-58
2024/01/04 21:06:37;;;;;;;17.95;6.75;;;;;;;;;;8241319;28;20025;-58
2024/01/04 21:10:38;;;;;;;20.10;5.75;;;;;;;;;;8244488;28;20033;-58
2024/01/04 21:14:38;;;;;;;26.00;7.28;;;;;;;;;;8244937;28;20036;-57
2024/01/04 21:18:39;;;;;;;20.48;6.35;;;;;;;;;;8240437;28;20367;-58
2024/01/04 21:22:41;;;;;;;10.73;3.38;;;;;;;;;;8253937;28;20068;-59
2024/01/04 21:26:41;;;;;;;11.18;2.47;;;;;;;;;;8248650;28;20022;-59
2024/01/04 21:30:41;;;;;;;12.02;2.80;;;;;;;;;;8244479;28;20034;-59
2024/01/04 21:34:42;;;;;;;9.77;2.22;;;;;;;;;;8249634;28;20141;-58
2024/01/04 21:38:42;;;;;;;16.70;5.35;;;;;;;;;;8252327;28;20056;-59
2024/01/04 21:42:42;;;;;;;9.53;3.10;;;;;;;;;;8252651;28;20505;-59
2024/01/04 21:46:42;;;;;;;10.13;2.55;;;;;;;;;;8253690;28;20387;-58
2024/01/04 21:50:44;;;;;;;13.05;3.83;;;;;;;;;;8249788;28;20152;-58
2024/01/04 21:54:45;;;;;;;13.23;3.60;;;;;;;;;;8252657;28;20120;-57
2024/01/04 21:58:46;;;;;;;14.87;4.17;;;;;;;;;;8250011;28;20179;-58
2024/01/04 22:02:46;;;;;;;13.15;4.70;;;;;;;;;;8256107;28;20045;-58
2024/01/04 22:06:47;;;;;;;10.48;5.00;;;;;;;;;;8260865;28;20933;-57
2024/01/04 22:10:47;;;;;;;15.80;4.40;;;;;;;;;;8255764;28;20024;-58
2024/01/04 22:14:47;;;;;;;14.98;4.30;;;;;;;;;;8258882;28;20276;-58
2024/01/04 22:18:47;;;;;;;11.57;3.75;;;;;;;;;;8257480;28;20041;-57
2024/01/04 22:22:49;;;;;;;11.43;3.30;;;;;;;;;;8256909;28;20044;-57
2024/01/04 22:26:50;;;;;;;12.73;3.20;;;;;;;;;;8251901;28;20264;-57
2024/01/04 22:30:50;;;;;;;15.95;3.63;;;;;;;;;;8253301;28;20095;-58
2024/01/04 22:34:50;;;;;;;13.88;2.92;;;;;;;;;;8256080;28;20038;-58
2024/01/04 22:38:50;;;;;;;11.85;3.83;;;;;;;;;;8253647;28;20116;-57
2024/01/04 22:42:50;;;;;;;15.88;3.13;;;;;;;;;;8252059;28;20080;-58
2024/01/04 22:46:51;;;;;;;17.15;5.30;;;;;;;;;;8255634;28;20038;-57
2024/01/04 22:50:51;;;;;;;15.75;3.78;;;;;;;;;;8248313;28;20063;-57
2024/01/04 22:54:51;;;;;;;12.20;2.60;;;;;;;;;;8250893;28;20051;-58
2024/01/04 22:58:52;;;;;;;11.18;2.60;;;;;;;;;;8249245;28;20441;-58
2024/01/04 23:02:54;;;;;;;10.63;2.80;;;;;;;;;;8258928;28;20914;-59
2024/01/04 23:06:54;;;;;;;11.20;2.85;;;;;;;;;;8258116;28;20573;-58
2024/01/04 23:10:55;;;;;;;11.55;2.53;;;;;;;;;;8257920;28;20140;-57
2024/01/04 23:14:55;;;;;;;7.72;2.47;;;;;;;;;;8259818;28;20029;-57
2024/01/04 23:18:56;;;;;;;7.40;2.10;;;;;;;;;;8263292;28;20406;-57
2024/01/04 23:22:56;;;;;;;12.88;2.63;;;;;;;;;;8263672;28;20057;-58
2024/01/04 23:26:56;;;;;;;11.57;2.67;;;;;;;;;;8262599;28;20018;-57
2024/01/04 23:30:57;;;;;;;8.63;2.75;;;;;;;;;;8266217;28;20228;-58
2024/01/04 23:34:57;;;;;;;10.27;2.47;;;;;;;;;;8261861;28;20143;-57
2024/01/04 23:38:57;;;;;;;8.57;2.47;;;;;;;;;;8261200;28;20367;-60
2024/01/04 23:42:57;;;;;;;8.52;2.20;;;;;;;;;;8261481;28;20108;-58
2024/01/04 23:46:57;;;;;;;11.15;2.97;;;;;;;;;;8259017;28;20091;-58
2024/01/04 23:50:58;;;;;;;12.77;2.60;;;;;;;;;;8259782;28;20029;-59
2024/01/04 23:54:58;;;;;;;7.47;2.30;;;;;;;;;;8263358;28;20026;-58
2024/01/04 23:58:58;;;;;;;11.35;2.38;;;;;;;;;;8257818;28;20033;-57
